Time;durP1;ratioP1;P1;durP2;ratioP2;P2;SDS_P1;SDS_P2;PMS_P1;PMS_P2;Temp;Humidity;BMP_temperature;BMP_pressure;BME280_temperature;BME280_humidity;BME280_pressure;Samples;Min_cycle;Max_cycle;Signal;HPM_P1;HPM_P2
2023/03/11 00:03:08;;;;;;;5.60;2.60;;;;;;;20.02;50.41;96523.14;273101;1280;22988;-76
2023/03/11 00:09:12;;;;;;;5.20;2.80;;;;;;;20.00;50.07;96521.55;273086;1280;22688;-75
2023/03/11 00:15:15;;;;;;;6.00;3.00;;;;;;;19.97;50.12;96532.52;273069;1285;22798;-76
2023/03/11 00:21:19;;;;;;;4.30;2.40;;;;;;;19.91;50.06;96529.98;273103;1284;22420;-75
2023/03/11 00:27:22;;;;;;;5.10;2.60;;;;;;;19.96;50.05;96521.52;273010;1278;22282;-75
2023/03/11 00:33:24;;;;;;;4.50;2.50;;;;;;;19.85;50.19;96522.67;273018;1280;22976;-76
2023/03/11 00:39:29;;;;;;;7.50;2.60;;;;;;;19.55;50.60;96508.17;273072;1277;23162;-76
2023/03/11 00:45:32;;;;;;;4.50;2.40;;;;;;;19.62;50.55;96509.50;272949;1276;22460;-75
2023/03/11 00:51:35;;;;;;;5.90;2.90;;;;;;;19.63;50.51;96508.44;273047;1281;22459;-76
2023/03/11 00:57:38;;;;;;;4.80;2.70;;;;;;;19.73;50.38;96504.79;273081;1285;22472;-77
2023/03/11 01:03:42;;;;;;;7.10;3.00;;;;;;;19.77;50.23;96509.24;273037;1278;22207;-76
2023/03/11 01:09:46;;;;;;;6.60;2.80;;;;;;;20.01;49.90;96497.39;272960;1278;22154;-77
2023/03/11 01:15:49;;;;;;;7.00;2.40;;;;;;;19.96;50.02;96500.73;273081;1278;22185;-77
2023/03/11 01:21:52;;;;;;;5.40;2.80;;;;;;;20.00;50.00;96492.02;273059;1278;23370;-82
2023/03/11 01:27:55;;;;;;;4.30;2.40;;;;;;;20.27;49.59;96489.46;273082;1284;22995;-80
2023/03/11 01:33:57;;;;;;;5.00;2.60;;;;;;;20.05;49.83;96490.17;272980;1285;23362;-76
2023/03/11 01:40:02;;;;;;;5.10;2.70;;;;;;;19.65;49.97;96491.36;273192;1284;22420;-78
2023/03/11 01:46:16;;;;;;;5.30;2.70;;;;;;;19.82;49.45;96494.78;273086;1285;22265;-78
2023/03/11 01:52:20;;;;;;;5.60;2.90;;;;;;;20.10;49.00;96498.23;273072;1285;22116;-78
2023/03/11 01:58:31;;;;;;;6.00;2.30;;;;;;;20.19;48.83;96491.72;273077;1285;22371;-79
2023/03/11 02:04:35;;;;;;;2.80;1.40;;;;;;;19.49;48.22;96496.01;273166;1278;22848;-78
2023/03/11 02:10:40;;;;;;;1.50;0.80;;;;;;;19.05;48.21;96505.99;273140;1285;22274;-80
2023/03/11 02:16:43;;;;;;;1.00;0.60;;;;;;;18.33;48.42;96511.64;273051;1285;22338;-78
2023/03/11 02:22:47;;;;;;;1.00;0.60;;;;;;;18.49;47.43;96512.17;273054;1285;22151;-79
2023/03/11 02:28:50;;;;;;;0.40;0.30;;;;;;;18.47;46.90;96510.25;273082;1285;22938;-78
2023/03/11 02:34:53;;;;;;;1.00;0.30;;;;;;;18.25;47.17;96514.52;273030;1285;22346;-79
2023/03/11 02:41:00;;;;;;;0.90;0.50;;;;;;;18.31;46.98;96520.08;273063;1285;22468;-76
2023/03/11 02:47:03;;;;;;;1.90;0.40;;;;;;;18.36;46.81;96526.91;273019;1285;22303;-76
2023/03/11 02:53:07;;;;;;;1.00;0.40;;;;;;;18.19;46.72;96521.50;273059;1285;22400;-76
2023/03/11 02:59:10;;;;;;;0.30;0.30;;;;;;;18.29;46.64;96525.17;273084;1285;22370;-76
2023/03/11 03:05:13;;;;;;;0.40;0.20;;;;;;;18.43;45.31;96520.39;273155;1280;22341;-76
2023/03/11 03:11:16;;;;;;;0.40;0.20;;;;;;;18.15;44.84;96525.71;273055;1278;22140;-76
2023/03/11 03:17:21;;;;;;;1.80;0.10;;;;;;;17.98;44.85;96523.85;273080;1276;22384;-78
2023/03/11 03:23:24;;;;;;;0.30;0.10;;;;;;;18.09;44.72;96524.12;273046;1278;22406;-77
2023/03/11 03:29:27;;;;;;;0.30;0.20;;;;;;;17.20;46.04;96518.38;273102;1280;22136;-78
2023/03/11 03:35:30;;;;;;;0.60;0.30;;;;;;;17.61;45.56;96523.04;273100;1285;23123;-78
2023/03/11 03:41:44;;;;;;;0.50;0.30;;;;;;;17.46;45.86;96518.36;273066;1285;22830;-79
2023/03/11 03:47:48;;;;;;;1.30;0.30;;;;;;;17.91;45.27;96519.40;272964;1285;22154;-78
2023/03/11 03:53:51;;;;;;;1.20;0.30;;;;;;;17.63;45.45;96523.65;273084;1280;22111;-79
2023/03/11 03:59:55;;;;;;;0.80;0.40;;;;;;;17.55;45.48;96517.80;272943;1284;22143;-79
2023/03/11 04:06:16;;;;;;;0.90;0.40;;;;;;;17.51;44.90;96518.45;273057;1285;22159;-78
2023/03/11 04:12:19;;;;;;;1.30;0.40;;;;;;;17.40;45.04;96514.69;273103;1285;23031;-79
2023/03/11 04:18:23;;;;;;;0.60;0.40;;;;;;;17.50;44.77;96514.45;272938;1283;22142;-80
2023/03/11 04:24:26;;;;;;;2.00;0.50;;;;;;;17.57;44.41;96507.84;273075;1284;22341;-77
2023/03/11 04:30:29;;;;;;;2.10;0.50;;;;;;;17.44;44.68;96504.10;273136;1285;22108;-78
2023/03/11 04:36:32;;;;;;;1.10;0.70;;;;;;;17.56;44.59;96492.61;273068;1284;22425;-78
2023/03/11 04:42:36;;;;;;;0.90;0.50;;;;;;;17.34;44.90;96494.64;273059;1281;22226;-79
2023/03/11 04:48:39;;;;;;;3.30;0.60;;;;;;;17.41;45.11;96501.23;273006;1280;22330;-80
2023/03/11 04:54:42;;;;;;;0.60;0.50;;;;;;;16.88;45.71;96504.02;272992;1285;22120;-78
2023/03/11 05:00:46;;;;;;;1.10;0.60;;;;;;;16.57;46.22;96510.69;273074;1285;22150;-75
2023/03/11 05:06:52;;;;;;;0.80;0.70;;;;;;;16.54;46.67;96512.91;273074;1285;22375;-78
2023/03/11 05:12:56;;;;;;;2.00;0.70;;;;;;;16.44;47.62;96511.00;273027;1280;22147;-78
2023/03/11 05:19:29;;;;;;;2.70;0.80;;;;;;;16.14;48.87;96511.14;273013;1285;22867;-78
2023/03/11 05:25:26;;;;;;;0.70;0.60;;;;;;;16.48;49.15;96519.75;273065;1285;22331;-76
2023/03/11 05:31:29;;;;;;;1.00;0.60;;;;;;;16.65;48.96;96528.04;273007;1285;22189;-76
2023/03/11 05:37:32;;;;;;;0.90;0.40;;;;;;;16.23;49.36;96528.74;273107;1279;22343;-77
2023/03/11 05:43:35;;;;;;;0.60;0.30;;;;;;;15.66;50.25;96526.75;273128;1285;22129;-79
2023/03/11 05:49:38;;;;;;;0.40;0.40;;;;;;;15.94;50.51;96532.52;273114;1285;22113;-77
2023/03/11 05:55:41;;;;;;;0.90;0.50;;;;;;;16.06;50.18;96539.65;273104;1285;22361;-77
2023/03/11 06:01:45;;;;;;;1.60;0.60;;;;;;;15.56;51.24;96550.27;273079;1279;22363;-76
2023/03/11 06:07:48;;;;;;;1.10;0.60;;;;;;;16.13;50.96;96559.12;273102;1285;22878;-77
2023/03/11 06:13:55;;;;;;;1.30;0.30;;;;;;;15.45;50.59;96581.19;273052;1284;22124;-76
2023/03/11 06:19:59;;;;;;;1.30;0.50;;;;;;;14.71;50.36;96600.71;273058;1285;23132;-77
2023/03/11 06:26:04;;;;;;;1.00;0.60;;;;;;;14.39;50.50;96617.88;272922;1280;22213;-77
2023/03/11 06:32:11;;;;;;;0.40;0.40;;;;;;;14.81;49.61;96633.36;272913;1286;22998;-78
2023/03/11 06:38:14;;;;;;;0.70;0.60;;;;;;;14.38;49.88;96642.52;273036;1285;22101;-77
2023/03/11 06:44:17;;;;;;;1.20;0.50;;;;;;;14.56;49.46;96648.01;272982;1286;22327;-77
2023/03/11 06:50:22;;;;;;;0.70;0.50;;;;;;;14.97;48.27;96659.53;272941;1286;22102;-79
2023/03/11 06:56:26;;;;;;;2.50;0.70;;;;;;;14.41;48.86;96659.83;272930;1283;22561;-79
2023/03/11 07:02:36;;;;;;;1.40;0.70;;;;;;;14.56;48.94;96674.52;272951;1286;22119;-80
2023/03/11 07:08:39;;;;;;;1.40;0.70;;;;;;;14.51;48.99;96684.42;273044;1286;22244;-80
2023/03/11 07:14:43;;;;;;;1.00;0.70;;;;;;;14.03;50.28;96713.99;272939;1286;22399;-78
2023/03/11 07:20:46;;;;;;;1.50;0.80;;;;;;;14.15;51.01;96728.21;272934;1280;22606;-77
2023/03/11 07:26:49;;;;;;;1.30;0.70;;;;;;;13.86;51.98;96742.19;273055;1278;22332;-77
2023/03/11 07:32:52;;;;;;;1.40;0.80;;;;;;;13.90;52.00;96757.83;273054;1278;22102;-78
2023/03/11 07:39:02;;;;;;;1.30;0.90;;;;;;;13.97;51.96;96760.12;273075;1279;24357;-83
2023/03/11 07:45:06;;;;;;;2.70;0.80;;;;;;;14.53;50.87;96754.59;273071;1280;22218;-79
2023/03/11 07:51:16;;;;;;;1.30;0.90;;;;;;;15.04;49.90;96770.33;272971;1284;122927;-78
2023/03/11 07:57:19;;;;;;;1.00;0.70;;;;;;;15.05;49.52;96767.30;272964;1281;22164;-80
2023/03/11 08:03:23;;;;;;;0.90;0.60;;;;;;;14.59;49.39;96776.66;273048;1284;22968;-80
2023/03/11 08:09:27;;;;;;;0.80;0.60;;;;;;;14.64;48.78;96779.46;272994;1285;23009;-79
2023/03/11 08:15:30;;;;;;;0.70;0.50;;;;;;;15.09;48.66;96787.23;273106;1280;22787;-77
2023/03/11 08:21:33;;;;;;;1.30;0.70;;;;;;;15.02;49.34;96795.27;273064;1285;22791;-77
2023/03/11 08:27:37;;;;;;;1.30;0.90;;;;;;;15.03;49.35;96796.58;273100;1278;22126;-76
2023/03/11 08:33:44;;;;;;;1.60;0.90;;;;;;;14.52;49.41;96808.96;273067;1283;22162;-78
2023/03/11 08:39:47;;;;;;;1.20;1.00;;;;;;;14.51;49.35;96812.51;273123;1278;22434;-78
2023/03/11 08:45:53;;;;;;;2.50;1.50;;;;;;;14.31;50.12;96820.91;273023;1285;22478;-83
2023/03/11 08:51:57;;;;;;;2.30;1.20;;;;;;;14.38;50.28;96826.42;272949;1282;22192;-81
2023/03/11 08:58:00;;;;;;;2.10;1.20;;;;;;;14.58;49.86;96830.41;273023;1285;23121;-81
2023/03/11 09:04:03;;;;;;;1.40;1.10;;;;;;;14.82;50.00;96838.09;272990;1285;22167;-82
2023/03/11 09:10:07;;;;;;;1.50;1.30;;;;;;;15.43;48.79;96842.14;272918;1284;22414;-80
2023/03/11 09:16:16;;;;;;;3.00;1.30;;;;;;;15.42;48.29;96847.82;272935;1280;22168;-78
2023/03/11 09:22:19;;;;;;;2.60;1.50;;;;;;;15.55;48.07;96857.95;273026;1282;22772;-78
2023/03/11 09:28:22;;;;;;;1.90;1.40;;;;;;;15.13;48.67;96861.96;273049;1279;22733;-78
2023/03/11 09:34:25;;;;;;;2.70;1.80;;;;;;;14.53;48.76;96874.98;273076;1279;22220;-78
2023/03/11 09:40:51;;;;;;;3.80;2.00;;;;;;;15.10;48.03;96888.13;273014;1285;22219;-78
2023/03/11 09:46:56;;;;;;;2.80;1.90;;;;;;;15.55;47.54;96899.52;272992;1282;22388;-78
2023/03/11 09:53:25;;;;;;;2.40;1.60;;;;;;;15.51;48.07;96905.04;272954;1284;22814;-77
2023/03/11 09:59:31;;;;;;;2.60;1.90;;;;;;;14.43;49.65;96913.08;272957;1285;22379;-77
2023/03/11 10:05:34;;;;;;;;;;;;;;;14.72;49.27;96921.65;272974;1277;23125;-78
2023/03/11 10:11:46;;;;;;;3.50;2.10;;;;;;;14.48;50.16;96926.85;273069;1282;22170;-77
2023/03/11 10:17:58;;;;;;;3.60;2.00;;;;;;;14.24;50.84;96937.74;273048;1282;23096;-77
2023/03/11 10:24:32;;;;;;;2.80;1.80;;;;;;;14.20;51.07;96953.30;273075;1280;22341;-77
2023/03/11 10:30:47;;;;;;;3.30;1.80;;;;;;;14.40;50.41;96963.26;273018;1285;22498;-76
2023/03/11 10:37:10;;;;;;;2.80;1.70;;;;;;;14.50;50.23;96975.16;272893;1285;22100;-76
2023/03/11 10:43:36;;;;;;;3.50;1.90;;;;;;;14.58;50.14;96981.39;273014;1280;22355;-78
2023/03/11 10:49:39;;;;;;;3.80;1.80;;;;;;;14.15;50.87;96996.33;272995;1285;22328;-78
2023/03/11 10:55:50;;;;;;;3.10;1.60;;;;;;;13.42;52.35;97007.09;273057;1282;22448;-84
2023/03/11 11:01:56;;;;;;;3.70;2.10;;;;;;;13.71;52.91;97012.01;273034;1282;22358;-78
2023/03/11 11:08:22;;;;;;;4.20;2.50;;;;;;;13.73;53.60;97022.61;273045;1278;22167;-84
2023/03/11 11:14:26;;;;;;;3.30;2.00;;;;;;;13.91;53.49;97028.23;273017;1280;22992;-78
2023/03/11 11:20:30;;;;;;;3.00;2.10;;;;;;;13.18;54.15;97039.60;272912;1285;22955;-76
2023/03/11 11:26:33;;;;;;;3.30;2.10;;;;;;;13.37;55.14;97048.00;272766;1279;22616;-75
2023/03/11 11:32:36;;;;;;;3.50;2.10;;;;;;;12.84;55.86;97064.03;272810;1281;22460;-77
2023/03/11 11:38:39;;;;;;;4.60;2.50;;;;;;;12.71;56.85;97076.98;272694;1287;22115;-76
2023/03/11 11:44:46;;;;;;;4.20;2.60;;;;;;;12.71;56.52;97088.30;272783;1286;22984;-76
2023/03/11 11:50:59;;;;;;;3.80;2.50;;;;;;;12.47;56.91;97098.13;272698;1280;23407;-76
2023/03/11 11:57:10;;;;;;;3.60;2.40;;;;;;;12.39;56.74;97113.71;272826;1280;22157;-76
2023/03/11 12:03:51;;;;;;;3.60;2.60;;;;;;;12.14;57.53;97119.91;272734;1285;22472;-76
2023/03/11 12:10:17;;;;;;;4.40;2.80;;;;;;;12.27;57.27;97139.41;272846;1280;22122;-76
2023/03/11 12:16:41;;;;;;;4.00;2.60;;;;;;;12.84;56.71;97155.10;272778;1282;22246;-76
2023/03/11 12:22:59;;;;;;;3.70;2.60;;;;;;;12.28;57.25;97170.86;272840;1280;22435;-76
2023/03/11 12:29:23;;;;;;;4.60;2.50;;;;;;;12.04;57.86;97198.34;272994;1279;22823;-76
2023/03/11 12:35:31;;;;;;;3.40;2.20;;;;;;;11.69;58.77;97236.46;272989;1280;23152;-79
2023/03/11 12:41:40;;;;;;;5.60;2.90;;;;;;;11.46;60.49;97269.13;273006;1285;22417;-79
2023/03/11 12:47:43;;;;;;;3.20;2.40;;;;;;;10.92;62.58;97286.94;273099;1282;22304;-80
2023/03/11 12:53:48;;;;;;;3.60;2.10;;;;;;;11.48;61.85;97305.78;273023;1279;22573;-80
2023/03/11 13:00:22;;;;;;;3.90;2.10;;;;;;;11.44;61.30;97329.58;273029;1283;22127;-80
2023/03/11 13:06:58;;;;;;;4.00;2.40;;;;;;;10.81;61.81;97360.25;273045;1277;23240;-80
2023/03/11 13:13:02;;;;;;;3.20;2.10;;;;;;;11.59;61.46;97368.98;273015;1280;22117;-81
2023/03/11 13:19:33;;;;;;;4.50;2.40;;;;;;;10.27;77.52;97391.95;273061;1277;22904;-80
2023/03/11 13:25:41;;;;;;;3.50;2.00;;;;;;;11.77;91.99;97393.20;273094;1278;22381;-79
2023/03/11 13:31:59;;;;;;;3.60;2.10;;;;;;;11.80;78.49;97406.76;273034;1282;22355;-79
2023/03/11 13:38:32;;;;;;;3.00;1.80;;;;;;;10.38;77.52;97441.34;273055;1277;22364;-80
2023/03/11 13:44:36;;;;;;;3.40;2.10;;;;;;;11.18;76.46;97452.25;273026;1279;22468;-76
2023/03/11 13:50:46;;;;;;;3.00;1.90;;;;;;;11.13;75.33;97469.20;272957;1277;22184;-73
2023/03/11 13:56:56;;;;;;;4.60;1.90;;;;;;;11.52;72.53;97487.34;272998;1283;22290;-73
2023/03/11 14:03:04;;;;;;;3.50;2.00;;;;;;;11.05;83.50;97506.90;273026;1279;22279;-74
2023/03/11 14:09:18;;;;;;;5.10;2.30;;;;;;;11.29;77.07;97518.06;273026;1278;22366;-74
2023/03/11 14:15:23;;;;;;;4.40;1.90;;;;;;;11.13;72.58;97542.23;272978;1279;22895;-73
2023/03/11 14:21:27;;;;;;;3.60;2.10;;;;;;;10.71;72.45;97554.17;273023;1280;22112;-74
2023/03/11 14:27:30;;;;;;;4.50;2.40;;;;;;;10.38;72.68;97572.61;272963;1279;22253;-74
2023/03/11 14:33:33;;;;;;;3.40;2.20;;;;;;;10.14;72.22;97583.78;273053;1279;22928;-74
2023/03/11 14:39:38;;;;;;;3.90;2.40;;;;;;;9.95;70.75;97599.50;273020;1279;22438;-77
2023/03/11 14:45:41;;;;;;;5.60;2.40;;;;;;;9.83;69.67;97616.06;272876;1278;22410;-76
2023/03/11 14:51:46;;;;;;;4.10;2.40;;;;;;;9.11;68.73;97639.92;273109;1279;23151;-76
2023/03/11 14:57:58;;;;;;;3.50;1.90;;;;;;;9.27;68.39;97652.39;272986;1278;23049;-76
2023/03/11 15:04:31;;;;;;;4.90;2.50;;;;;;;8.51;79.07;97676.17;273028;1283;22132;-76
2023/03/11 15:10:35;;;;;;;4.70;2.80;;;;;;;9.74;73.44;97680.44;273032;1279;22233;-78
2023/03/11 15:16:38;;;;;;;5.20;2.80;;;;;;;10.92;70.62;97687.44;273021;1281;22326;-77
2023/03/11 15:22:42;;;;;;;5.70;3.00;;;;;;;11.09;68.72;97696.98;273055;1278;22149;-77
2023/03/11 15:28:45;;;;;;;6.80;3.30;;;;;;;11.48;67.38;97696.25;273066;1278;22312;-76
2023/03/11 15:34:59;;;;;;;6.80;3.60;;;;;;;11.17;66.44;97717.98;273061;1280;22405;-76
2023/03/11 15:41:03;;;;;;;6.00;3.50;;;;;;;10.88;66.89;97731.20;273038;1280;22351;-79
2023/03/11 15:47:14;;;;;;;6.80;3.30;;;;;;;10.60;67.47;97751.05;273053;1280;22387;-78
2023/03/11 15:53:17;;;;;;;6.00;3.30;;;;;;;10.69;67.12;97755.83;273101;1285;22383;-86
2023/03/11 15:59:22;;;;;;;6.30;3.50;;;;;;;11.14;66.03;97763.92;272883;1285;22327;-88
2023/03/11 16:05:36;;;;;;;8.40;4.20;;;;;;;11.08;66.62;97766.27;272806;1281;22357;-80
2023/03/11 16:11:44;;;;;;;7.70;4.30;;;;;;;11.17;66.74;97770.33;273049;1278;22167;-74
2023/03/11 16:17:51;;;;;;;6.90;4.00;;;;;;;10.94;66.25;97787.27;272978;1279;22110;-76
2023/03/11 16:23:53;;;;;;;7.10;3.90;;;;;;;10.78;66.23;97802.15;272984;1278;22390;-82
2023/03/11 16:29:57;;;;;;;7.70;4.20;;;;;;;10.61;66.39;97813.15;272933;1279;23019;-80
2023/03/11 16:36:01;;;;;;;8.80;5.10;;;;;;;10.96;66.28;97825.63;272990;1279;22391;-76
2023/03/11 16:42:05;;;;;;;8.20;4.70;;;;;;;11.25;65.16;97830.45;273000;1278;22115;-75
2023/03/11 16:48:08;;;;;;;10.00;5.90;;;;;;;11.55;64.41;97840.75;273032;1278;23163;-78
2023/03/11 16:54:11;;;;;;;9.40;5.60;;;;;;;11.36;64.34;97851.40;272975;1278;22361;-77
2023/03/11 17:00:16;;;;;;;9.50;5.20;;;;;;;10.64;64.52;97867.69;272981;1280;22415;-77
2023/03/11 17:06:39;;;;;;;8.50;5.30;;;;;;;10.96;63.97;97882.95;272891;1280;22123;-77
2023/03/11 17:12:42;;;;;;;7.00;4.20;;;;;;;10.29;64.94;97900.59;273016;1278;22481;-78
2023/03/11 17:18:46;;;;;;;8.30;3.90;;;;;;;10.48;64.63;97920.41;273015;1279;22216;-79
2023/03/11 17:24:49;;;;;;;8.20;4.70;;;;;;;10.21;65.27;97937.11;272943;1277;23085;-77
2023/03/11 17:30:53;;;;;;;7.20;3.90;;;;;;;9.89;65.99;97950.03;273050;1277;22391;-77
2023/03/11 17:36:56;;;;;;;8.10;3.60;;;;;;;10.25;64.00;97958.60;272909;1277;22846;-76
2023/03/11 17:42:59;;;;;;;7.00;3.70;;;;;;;9.59;63.86;97973.77;273041;1281;22365;-74
2023/03/11 17:49:02;;;;;;;5.50;3.00;;;;;;;9.50;62.64;97988.83;272904;1277;22358;-75
2023/03/11 17:55:06;;;;;;;7.30;3.40;;;;;;;9.69;61.94;98001.90;272962;1277;22217;-77
2023/03/11 18:01:18;;;;;;;7.10;3.20;;;;;;;9.66;62.37;98016.79;272967;1278;23066;-73
2023/03/11 18:07:22;;;;;;;5.90;3.50;;;;;;;9.39;62.59;98042.11;273029;1277;22438;-76
2023/03/11 18:13:25;;;;;;;6.60;3.30;;;;;;;10.96;85.73;98064.70;273034;1279;23103;-74
2023/03/11 18:19:28;;;;;;;5.80;3.10;;;;;;;15.44;59.99;98057.39;273053;1280;22411;-75
2023/03/11 18:25:32;;;;;;;4.00;2.10;;;;;;;15.63;52.84;98079.63;273095;1278;22222;-75
2023/03/11 18:31:35;;;;;;;4.60;2.20;;;;;;;16.15;50.19;98081.90;273056;1285;22364;-78
2023/03/11 18:37:39;;;;;;;6.10;3.30;;;;;;;15.52;50.36;98099.49;273063;1280;22397;-77
2023/03/11 18:43:42;;;;;;;4.80;2.70;;;;;;;15.04;50.46;98106.11;273059;1280;22235;-79
2023/03/11 18:49:46;;;;;;;7.50;3.30;;;;;;;15.41;50.76;98114.52;272994;1278;22407;-75
2023/03/11 18:55:57;;;;;;;9.10;3.80;;;;;;;16.77;49.47;98123.75;273062;1279;22347;-75
2023/03/11 19:02:00;;;;;;;9.50;3.60;;;;;;;16.37;48.92;98136.80;272900;1279;22183;-75
2023/03/11 19:08:03;;;;;;;7.80;3.80;;;;;;;15.56;49.18;98143.75;272956;1279;22218;-74
2023/03/11 19:14:06;;;;;;;6.60;3.80;;;;;;;14.82;50.62;98148.30;272910;1279;22864;-75
2023/03/11 19:20:10;;;;;;;7.70;3.70;;;;;;;14.88;50.29;98156.70;273070;1277;22397;-75
2023/03/11 19:26:13;;;;;;;10.10;5.10;;;;;;;14.51;50.37;98176.96;272964;1278;22354;-75
2023/03/11 19:32:16;;;;;;;12.10;5.40;;;;;;;14.47;50.63;98189.79;272962;1280;22516;-75
2023/03/11 19:38:20;;;;;;;9.90;4.80;;;;;;;13.30;51.42;98208.02;273029;1282;23563;-75
2023/03/11 19:44:23;;;;;;;8.00;4.40;;;;;;;13.41;51.39;98218.39;272933;1278;22241;-75
2023/03/11 19:50:26;;;;;;;7.90;4.30;;;;;;;12.95;52.09;98228.83;272827;1274;111694;-78
2023/03/11 19:56:31;;;;;;;10.70;5.20;;;;;;;12.82;51.73;98239.30;272963;1280;23241;-78
2023/03/11 20:02:40;;;;;;;9.80;4.80;;;;;;;13.36;51.03;98250.36;273045;1280;22319;-85
2023/03/11 20:08:46;;;;;;;9.50;5.00;;;;;;;13.62;51.26;98260.61;272993;1285;22399;-87
2023/03/11 20:22:04;;;;;;;12.00;5.20;;;;;;;13.46;51.09;98274.42;273622;1257;22296;-89
2023/03/11 20:28:11;;;;;;;9.40;5.10;;;;;;;13.07;51.21;98277.83;273243;1283;22339;-84
2023/03/11 20:34:16;;;;;;;9.20;4.40;;;;;;;13.16;51.13;98283.78;273258;1263;22103;-86
2023/03/11 20:40:25;;;;;;;10.10;5.10;;;;;;;13.00;51.51;98290.23;273262;1283;23125;-89
2023/03/11 20:46:30;;;;;;;7.80;4.30;;;;;;;12.81;51.06;98296.43;273206;1283;22152;-77
2023/03/11 20:52:34;;;;;;;7.50;4.10;;;;;;;12.72;50.72;98298.89;273138;1276;22389;-76
2023/03/11 20:58:41;;;;;;;10.90;4.70;;;;;;;12.81;50.97;98304.02;273134;1279;22184;-77
2023/03/11 21:04:45;;;;;;;9.30;5.00;;;;;;;12.77;50.70;98309.64;273168;1276;23088;-77
2023/03/11 21:10:48;;;;;;;10.40;4.70;;;;;;;12.76;51.07;98310.98;273130;1281;22941;-76
2023/03/11 21:16:53;;;;;;;8.00;4.50;;;;;;;12.86;50.76;98310.81;273160;1284;22301;-76
2023/03/11 21:22:56;;;;;;;10.40;4.60;;;;;;;12.82;50.61;98310.23;273112;1278;22418;-76
2023/03/11 21:29:00;;;;;;;8.00;4.40;;;;;;;13.22;49.92;98309.29;273113;1280;22182;-75
2023/03/11 21:35:10;;;;;;;9.20;5.00;;;;;;;13.35;49.46;98311.05;273124;1277;22463;-75
2023/03/11 21:41:23;;;;;;;11.30;6.70;;;;;;;13.45;49.52;98311.61;273118;1278;23079;-75
2023/03/11 21:47:26;;;;;;;11.90;6.30;;;;;;;13.50;49.43;98319.08;273178;1276;22543;-75
2023/03/11 21:53:31;;;;;;;12.20;7.40;;;;;;;13.25;49.57;98327.92;273210;1276;22385;-77
2023/03/11 21:59:35;;;;;;;16.40;8.60;;;;;;;13.57;49.48;98336.13;273148;1278;23077;-76
2023/03/11 22:05:41;;;;;;;19.70;10.60;;;;;;;13.82;49.03;98346.40;273189;1277;22874;-76
2023/03/11 22:11:47;;;;;;;14.30;7.50;;;;;;;13.23;49.31;98356.96;273053;1280;22272;-76
2023/03/11 22:17:50;;;;;;;11.70;7.00;;;;;;;13.28;49.27;98365.34;273135;1279;22283;-76
2023/03/11 22:23:53;;;;;;;14.90;7.70;;;;;;;13.42;48.91;98365.84;273122;1277;22349;-77
2023/03/11 22:29:56;;;;;;;13.70;7.60;;;;;;;13.09;49.30;98371.86;273147;1276;22456;-77
2023/03/11 22:36:00;;;;;;;13.30;7.60;;;;;;;13.05;48.99;98379.14;273088;1276;22285;-77
2023/03/11 22:42:04;;;;;;;14.30;7.70;;;;;;;13.23;48.63;98380.94;273159;1279;23025;-78
2023/03/11 22:48:07;;;;;;;14.90;7.70;;;;;;;13.47;48.34;98383.55;273096;1277;22325;-77
2023/03/11 22:54:10;;;;;;;14.20;7.10;;;;;;;12.92;48.20;98390.75;273114;1276;22381;-77
2023/03/11 23:00:16;;;;;;;12.50;6.80;;;;;;;13.20;47.94;98391.35;273166;1277;22499;-77
2023/03/11 23:06:20;;;;;;;14.50;7.40;;;;;;;13.58;47.55;98390.73;273036;1280;22255;-77
2023/03/11 23:12:23;;;;;;;15.10;7.70;;;;;;;13.58;47.31;98396.18;273174;1276;23140;-77
2023/03/11 23:18:26;;;;;;;12.40;6.90;;;;;;;13.56;47.36;98394.34;273177;1276;22491;-77
2023/03/11 23:24:29;;;;;;;13.90;7.60;;;;;;;13.67;47.23;98392.56;273147;1277;22250;-77
2023/03/11 23:30:32;;;;;;;17.20;8.60;;;;;;;13.62;47.42;98396.77;273216;1280;22216;-76
2023/03/11 23:36:35;;;;;;;17.60;9.10;;;;;;;13.27;48.00;98403.69;273197;1276;23181;-76
2023/03/11 23:42:38;;;;;;;17.50;9.40;;;;;;;13.30;48.20;98404.82;273165;1276;22730;-76
2023/03/11 23:48:41;;;;;;;15.50;8.70;;;;;;;13.42;48.42;98409.13;273200;1283;22627;-76
2023/03/11 23:54:44;;;;;;;19.90;9.90;;;;;;;14.01;47.96;98408.95;273135;1277;22251;-76
